sensor_id;sensor_type;location;lat;lon;timestamp;P1;durP1;ratioP1;P2;durP2;ratioP2
78686;SDS011;68002;52.310;6.990;2023-03-01T00:01:05;7.22;;;3.47;;
78686;SDS011;68002;52.310;6.990;2023-03-01T00:03:32;9.32;;;3.60;;
78686;SDS011;68002;52.310;6.990;2023-03-01T00:05:58;7.40;;;4.43;;
78686;SDS011;68002;52.310;6.990;2023-03-01T00:08:25;7.53;;;4.97;;
78686;SDS011;68002;52.310;6.990;2023-03-01T00:11:01;8.10;;;3.75;;
78686;SDS011;68002;52.310;6.990;2023-03-01T00:13:31;6.53;;;3.65;;
78686;SDS011;68002;52.310;6.990;2023-03-01T00:15:57;8.00;;;3.78;;
78686;SDS011;68002;52.310;6.990;2023-03-01T00:18:22;7.63;;;3.53;;
78686;SDS011;68002;52.310;6.990;2023-03-01T00:20:53;10.00;;;3.97;;
78686;SDS011;68002;52.310;6.990;2023-03-01T00:23:19;9.10;;;3.60;;
78686;SDS011;68002;52.310;6.990;2023-03-01T00:25:45;6.95;;;3.53;;
78686;SDS011;68002;52.310;6.990;2023-03-01T00:28:10;8.20;;;3.33;;
78686;SDS011;68002;52.310;6.990;2023-03-01T00:30:36;9.15;;;4.20;;
78686;SDS011;68002;52.310;6.990;2023-03-01T00:33:01;10.17;;;3.90;;
78686;SDS011;68002;52.310;6.990;2023-03-01T00:35:26;9.47;;;3.67;;
78686;SDS011;68002;52.310;6.990;2023-03-01T00:37:51;8.90;;;4.07;;
78686;SDS011;68002;52.310;6.990;2023-03-01T00:40:17;8.63;;;4.33;;
78686;SDS011;68002;52.310;6.990;2023-03-01T00:42:42;10.47;;;4.23;;
78686;SDS011;68002;52.310;6.990;2023-03-01T00:45:07;7.13;;;4.80;;
78686;SDS011;68002;52.310;6.990;2023-03-01T00:47:33;5.55;;;2.60;;
78686;SDS011;68002;52.310;6.990;2023-03-01T00:49:58;8.17;;;3.90;;
78686;SDS011;68002;52.310;6.990;2023-03-01T00:52:23;7.43;;;3.53;;
78686;SDS011;68002;52.310;6.990;2023-03-01T00:54:51;9.67;;;3.83;;
78686;SDS011;68002;52.310;6.990;2023-03-01T00:57:17;6.95;;;3.33;;
78686;SDS011;68002;52.310;6.990;2023-03-01T00:59:42;10.43;;;4.97;;
78686;SDS011;68002;52.310;6.990;2023-03-01T01:02:07;7.90;;;3.50;;
78686;SDS011;68002;52.310;6.990;2023-03-01T01:04:32;8.57;;;3.53;;
78686;SDS011;68002;52.310;6.990;2023-03-01T01:06:57;7.90;;;4.43;;
78686;SDS011;68002;52.310;6.990;2023-03-01T01:09:23;7.90;;;3.83;;
78686;SDS011;68002;52.310;6.990;2023-03-01T01:11:49;8.60;;;4.03;;
78686;SDS011;68002;52.310;6.990;2023-03-01T01:14:16;7.70;;;3.42;;
78686;SDS011;68002;52.310;6.990;2023-03-01T01:16:41;7.80;;;4.05;;
78686;SDS011;68002;52.310;6.990;2023-03-01T01:19:07;8.27;;;5.57;;
78686;SDS011;68002;52.310;6.990;2023-03-01T01:21:32;8.30;;;3.53;;
78686;SDS011;68002;52.310;6.990;2023-03-01T01:23:58;7.63;;;3.65;;
78686;SDS011;68002;52.310;6.990;2023-03-01T01:26:25;4.95;;;2.22;;
78686;SDS011;68002;52.310;6.990;2023-03-01T01:28:52;7.68;;;3.30;;
78686;SDS011;68002;52.310;6.990;2023-03-01T01:31:18;5.65;;;2.70;;
78686;SDS011;68002;52.310;6.990;2023-03-01T01:33:44;7.20;;;3.17;;
78686;SDS011;68002;52.310;6.990;2023-03-01T01:36:10;6.47;;;2.40;;
78686;SDS011;68002;52.310;6.990;2023-03-01T01:38:36;6.87;;;3.10;;
78686;SDS011;68002;52.310;6.990;2023-03-01T01:41:02;5.80;;;3.08;;
78686;SDS011;68002;52.310;6.990;2023-03-01T01:43:30;6.88;;;2.72;;
78686;SDS011;68002;52.310;6.990;2023-03-01T01:46:02;5.60;;;3.03;;
78686;SDS011;68002;52.310;6.990;2023-03-01T01:51:28;5.82;;;3.13;;
78686;SDS011;68002;52.310;6.990;2023-03-01T01:56:25;7.40;;;3.28;;
78686;SDS011;68002;52.310;6.990;2023-03-01T01:58:53;5.93;;;3.20;;
78686;SDS011;68002;52.310;6.990;2023-03-01T02:01:19;7.18;;;3.63;;
78686;SDS011;68002;52.310;6.990;2023-03-01T02:03:44;7.95;;;3.88;;
78686;SDS011;68002;52.310;6.990;2023-03-01T02:06:19;6.97;;;3.60;;
78686;SDS011;68002;52.310;6.990;2023-03-01T02:08:51;6.80;;;3.58;;
78686;SDS011;68002;52.310;6.990;2023-03-01T02:11:17;5.70;;;2.83;;
78686;SDS011;68002;52.310;6.990;2023-03-01T02:13:44;10.10;;;4.03;;
78686;SDS011;68002;52.310;6.990;2023-03-01T02:16:13;7.68;;;3.15;;
78686;SDS011;68002;52.310;6.990;2023-03-01T02:18:40;11.48;;;4.35;;
78686;SDS011;68002;52.310;6.990;2023-03-01T02:21:42;8.85;;;3.67;;
78686;SDS011;68002;52.310;6.990;2023-03-01T02:26:53;8.23;;;4.57;;
78686;SDS011;68002;52.310;6.990;2023-03-01T02:29:21;7.78;;;3.63;;
78686;SDS011;68002;52.310;6.990;2023-03-01T02:31:47;7.70;;;3.67;;
78686;SDS011;68002;52.310;6.990;2023-03-01T02:34:17;9.35;;;3.67;;
78686;SDS011;68002;52.310;6.990;2023-03-01T02:36:52;7.53;;;3.00;;
78686;SDS011;68002;52.310;6.990;2023-03-01T02:39:26;9.55;;;3.95;;
78686;SDS011;68002;52.310;6.990;2023-03-01T02:41:56;7.82;;;3.35;;
78686;SDS011;68002;52.310;6.990;2023-03-01T02:44:22;7.00;;;3.60;;
78686;SDS011;68002;52.310;6.990;2023-03-01T02:46:48;7.63;;;3.78;;
78686;SDS011;68002;52.310;6.990;2023-03-01T02:49:19;10.38;;;3.97;;
78686;SDS011;68002;52.310;6.990;2023-03-01T02:57:34;10.07;;;4.32;;
78686;SDS011;68002;52.310;6.990;2023-03-01T03:00:12;8.73;;;4.65;;
78686;SDS011;68002;52.310;6.990;2023-03-01T03:02:40;6.63;;;3.15;;
78686;SDS011;68002;52.310;6.990;2023-03-01T03:05:11;8.80;;;3.80;;
78686;SDS011;68002;52.310;6.990;2023-03-01T03:07:39;7.25;;;4.03;;
78686;SDS011;68002;52.310;6.990;2023-03-01T03:10:07;8.88;;;4.10;;
78686;SDS011;68002;52.310;6.990;2023-03-01T03:12:38;7.32;;;3.47;;
78686;SDS011;68002;52.310;6.990;2023-03-01T03:15:05;9.25;;;4.43;;
78686;SDS011;68002;52.310;6.990;2023-03-01T03:17:31;7.90;;;3.47;;
78686;SDS011;68002;52.310;6.990;2023-03-01T03:19:56;7.90;;;3.73;;
78686;SDS011;68002;52.310;6.990;2023-03-01T03:22:21;6.53;;;3.43;;
78686;SDS011;68002;52.310;6.990;2023-03-01T03:24:46;6.63;;;3.30;;
78686;SDS011;68002;52.310;6.990;2023-03-01T03:27:11;7.67;;;3.33;;
78686;SDS011;68002;52.310;6.990;2023-03-01T03:29:37;9.60;;;3.70;;
78686;SDS011;68002;52.310;6.990;2023-03-01T03:32:02;9.77;;;3.60;;
78686;SDS011;68002;52.310;6.990;2023-03-01T03:34:27;8.33;;;4.37;;
78686;SDS011;68002;52.310;6.990;2023-03-01T03:36:56;8.50;;;3.67;;
78686;SDS011;68002;52.310;6.990;2023-03-01T03:39:22;6.88;;;3.33;;
78686;SDS011;68002;52.310;6.990;2023-03-01T03:41:48;9.98;;;4.20;;
78686;SDS011;68002;52.310;6.990;2023-03-01T03:44:13;7.37;;;3.40;;
78686;SDS011;68002;52.310;6.990;2023-03-01T03:46:38;9.27;;;3.30;;
78686;SDS011;68002;52.310;6.990;2023-03-01T03:49:04;7.10;;;3.53;;
78686;SDS011;68002;52.310;6.990;2023-03-01T03:51:29;9.93;;;3.87;;
78686;SDS011;68002;52.310;6.990;2023-03-01T03:53:54;7.63;;;2.83;;
78686;SDS011;68002;52.310;6.990;2023-03-01T03:56:19;7.13;;;3.67;;
78686;SDS011;68002;52.310;6.990;2023-03-01T03:58:44;8.53;;;3.67;;
78686;SDS011;68002;52.310;6.990;2023-03-01T04:01:09;10.57;;;3.83;;
78686;SDS011;68002;52.310;6.990;2023-03-01T04:03:35;9.50;;;3.97;;
78686;SDS011;68002;52.310;6.990;2023-03-01T04:06:00;11.57;;;4.10;;
78686;SDS011;68002;52.310;6.990;2023-03-01T04:08:27;5.30;;;3.42;;
78686;SDS011;68002;52.310;6.990;2023-03-01T04:10:56;8.18;;;3.60;;
78686;SDS011;68002;52.310;6.990;2023-03-01T04:13:22;10.77;;;4.07;;
78686;SDS011;68002;52.310;6.990;2023-03-01T04:15:49;8.65;;;3.88;;
78686;SDS011;68002;52.310;6.990;2023-03-01T04:18:15;8.32;;;3.88;;
78686;SDS011;68002;52.310;6.990;2023-03-01T04:20:42;7.00;;;3.05;;
78686;SDS011;68002;52.310;6.990;2023-03-01T04:23:18;8.07;;;4.05;;
78686;SDS011;68002;52.310;6.990;2023-03-01T04:25:57;6.90;;;4.60;;
78686;SDS011;68002;52.310;6.990;2023-03-01T04:30:53;9.05;;;4.55;;
78686;SDS011;68002;52.310;6.990;2023-03-01T04:33:20;9.35;;;4.00;;
78686;SDS011;68002;52.310;6.990;2023-03-01T04:35:46;7.40;;;4.00;;
78686;SDS011;68002;52.310;6.990;2023-03-01T04:38:11;7.85;;;3.95;;
78686;SDS011;68002;52.310;6.990;2023-03-01T04:40:37;9.93;;;4.17;;
78686;SDS011;68002;52.310;6.990;2023-03-01T04:43:02;8.73;;;4.23;;
78686;SDS011;68002;52.310;6.990;2023-03-01T04:45:28;8.77;;;4.72;;
78686;SDS011;68002;52.310;6.990;2023-03-01T04:47:54;6.67;;;3.80;;
78686;SDS011;68002;52.310;6.990;2023-03-01T04:50:20;8.65;;;4.10;;
78686;SDS011;68002;52.310;6.990;2023-03-01T04:52:45;9.40;;;4.95;;
78686;SDS011;68002;52.310;6.990;2023-03-01T04:55:12;10.38;;;3.95;;
78686;SDS011;68002;52.310;6.990;2023-03-01T04:57:37;7.32;;;3.97;;
78686;SDS011;68002;52.310;6.990;2023-03-01T05:00:03;9.53;;;4.03;;
78686;SDS011;68002;52.310;6.990;2023-03-01T05:02:31;8.85;;;4.47;;
78686;SDS011;68002;52.310;6.990;2023-03-01T05:04:56;6.70;;;3.43;;
78686;SDS011;68002;52.310;6.990;2023-03-01T05:07:21;9.37;;;4.30;;
78686;SDS011;68002;52.310;6.990;2023-03-01T05:09:46;6.03;;;3.37;;
78686;SDS011;68002;52.310;6.990;2023-03-01T05:12:12;8.40;;;3.83;;
78686;SDS011;68002;52.310;6.990;2023-03-01T05:14:38;8.10;;;4.10;;
78686;SDS011;68002;52.310;6.990;2023-03-01T05:17:03;6.75;;;3.65;;
78686;SDS011;68002;52.310;6.990;2023-03-01T05:19:29;7.90;;;3.57;;
78686;SDS011;68002;52.310;6.990;2023-03-01T05:21:55;7.50;;;4.05;;
78686;SDS011;68002;52.310;6.990;2023-03-01T05:24:20;8.00;;;3.73;;
78686;SDS011;68002;52.310;6.990;2023-03-01T05:26:45;8.53;;;4.40;;
78686;SDS011;68002;52.310;6.990;2023-03-01T05:29:10;6.67;;;3.37;;
78686;SDS011;68002;52.310;6.990;2023-03-01T05:31:35;7.30;;;4.00;;
78686;SDS011;68002;52.310;6.990;2023-03-01T05:34:00;7.57;;;4.27;;
78686;SDS011;68002;52.310;6.990;2023-03-01T05:36:26;6.57;;;3.90;;
78686;SDS011;68002;52.310;6.990;2023-03-01T05:38:51;6.83;;;3.97;;
78686;SDS011;68002;52.310;6.990;2023-03-01T05:41:16;6.37;;;3.80;;
78686;SDS011;68002;52.310;6.990;2023-03-01T05:43:41;8.13;;;4.00;;
78686;SDS011;68002;52.310;6.990;2023-03-01T05:46:07;8.30;;;4.93;;
78686;SDS011;68002;52.310;6.990;2023-03-01T05:48:32;5.83;;;3.47;;
78686;SDS011;68002;52.310;6.990;2023-03-01T05:50:58;7.60;;;3.77;;
78686;SDS011;68002;52.310;6.990;2023-03-01T05:53:24;6.25;;;2.72;;
78686;SDS011;68002;52.310;6.990;2023-03-01T05:55:49;7.03;;;3.37;;
78686;SDS011;68002;52.310;6.990;2023-03-01T05:58:16;9.13;;;5.67;;
78686;SDS011;68002;52.310;6.990;2023-03-01T06:00:43;7.63;;;3.55;;
78686;SDS011;68002;52.310;6.990;2023-03-01T06:03:09;10.43;;;5.18;;
78686;SDS011;68002;52.310;6.990;2023-03-01T06:05:36;4.90;;;3.28;;
78686;SDS011;68002;52.310;6.990;2023-03-01T06:08:01;7.10;;;4.33;;
78686;SDS011;68002;52.310;6.990;2023-03-01T06:10:26;7.03;;;3.60;;
78686;SDS011;68002;52.310;6.990;2023-03-01T06:12:52;8.90;;;6.60;;
78686;SDS011;68002;52.310;6.990;2023-03-01T06:15:18;4.22;;;3.10;;
78686;SDS011;68002;52.310;6.990;2023-03-01T06:17:45;10.38;;;5.15;;
78686;SDS011;68002;52.310;6.990;2023-03-01T06:20:21;11.13;;;5.63;;
78686;SDS011;68002;52.310;6.990;2023-03-01T06:22:47;9.68;;;4.28;;
78686;SDS011;68002;52.310;6.990;2023-03-01T06:25:14;7.68;;;4.38;;
78686;SDS011;68002;52.310;6.990;2023-03-01T06:27:41;8.73;;;4.82;;
78686;SDS011;68002;52.310;6.990;2023-03-01T06:30:08;9.33;;;4.70;;
78686;SDS011;68002;52.310;6.990;2023-03-01T06:32:35;6.97;;;3.75;;
78686;SDS011;68002;52.310;6.990;2023-03-01T06:35:00;8.40;;;4.20;;
78686;SDS011;68002;52.310;6.990;2023-03-01T06:37:25;9.73;;;5.07;;
78686;SDS011;68002;52.310;6.990;2023-03-01T06:39:51;9.95;;;4.00;;
78686;SDS011;68002;52.310;6.990;2023-03-01T06:42:16;12.07;;;6.43;;
78686;SDS011;68002;52.310;6.990;2023-03-01T06:44:41;7.93;;;4.80;;
78686;SDS011;68002;52.310;6.990;2023-03-01T06:47:07;12.38;;;6.75;;
78686;SDS011;68002;52.310;6.990;2023-03-01T06:49:32;10.40;;;5.63;;
78686;SDS011;68002;52.310;6.990;2023-03-01T06:51:57;9.87;;;4.57;;
78686;SDS011;68002;52.310;6.990;2023-03-01T06:54:23;8.33;;;5.33;;
78686;SDS011;68002;52.310;6.990;2023-03-01T06:56:48;11.32;;;6.25;;
78686;SDS011;68002;52.310;6.990;2023-03-01T06:59:14;11.27;;;5.10;;
78686;SDS011;68002;52.310;6.990;2023-03-01T07:01:40;11.40;;;5.45;;
78686;SDS011;68002;52.310;6.990;2023-03-01T07:04:06;9.35;;;5.15;;
78686;SDS011;68002;52.310;6.990;2023-03-01T07:06:31;11.67;;;6.00;;
78686;SDS011;68002;52.310;6.990;2023-03-01T07:08:56;10.27;;;5.53;;
78686;SDS011;68002;52.310;6.990;2023-03-01T07:11:21;9.83;;;4.90;;
78686;SDS011;68002;52.310;6.990;2023-03-01T07:13:47;8.98;;;5.13;;
78686;SDS011;68002;52.310;6.990;2023-03-01T07:16:12;8.63;;;5.43;;
78686;SDS011;68002;52.310;6.990;2023-03-01T07:18:38;11.40;;;5.55;;
78686;SDS011;68002;52.310;6.990;2023-03-01T07:21:04;10.43;;;5.73;;
78686;SDS011;68002;52.310;6.990;2023-03-01T07:23:30;11.40;;;6.00;;
78686;SDS011;68002;52.310;6.990;2023-03-01T07:25:55;9.37;;;5.43;;
78686;SDS011;68002;52.310;6.990;2023-03-01T07:28:22;11.43;;;5.90;;
78686;SDS011;68002;52.310;6.990;2023-03-01T07:30:48;11.18;;;4.80;;
78686;SDS011;68002;52.310;6.990;2023-03-01T07:33:13;9.93;;;5.50;;
78686;SDS011;68002;52.310;6.990;2023-03-01T07:35:39;10.30;;;5.10;;
78686;SDS011;68002;52.310;6.990;2023-03-01T07:38:04;8.50;;;4.50;;
78686;SDS011;68002;52.310;6.990;2023-03-01T07:40:29;6.73;;;4.20;;
78686;SDS011;68002;52.310;6.990;2023-03-01T07:42:57;6.30;;;4.43;;
78686;SDS011;68002;52.310;6.990;2023-03-01T07:45:24;10.50;;;7.07;;
78686;SDS011;68002;52.310;6.990;2023-03-01T07:47:50;8.07;;;4.43;;
78686;SDS011;68002;52.310;6.990;2023-03-01T07:50:16;8.20;;;4.93;;
78686;SDS011;68002;52.310;6.990;2023-03-01T07:52:41;8.03;;;4.33;;
78686;SDS011;68002;52.310;6.990;2023-03-01T07:55:07;9.87;;;4.60;;
78686;SDS011;68002;52.310;6.990;2023-03-01T07:57:33;7.70;;;4.88;;
78686;SDS011;68002;52.310;6.990;2023-03-01T07:59:59;10.68;;;5.57;;
78686;SDS011;68002;52.310;6.990;2023-03-01T08:02:24;7.90;;;4.77;;
78686;SDS011;68002;52.310;6.990;2023-03-01T08:04:49;8.47;;;4.63;;
78686;SDS011;68002;52.310;6.990;2023-03-01T08:07:14;9.50;;;6.23;;
78686;SDS011;68002;52.310;6.990;2023-03-01T08:09:39;8.57;;;3.83;;
78686;SDS011;68002;52.310;6.990;2023-03-01T08:12:05;7.53;;;5.63;;
78686;SDS011;68002;52.310;6.990;2023-03-01T08:14:31;8.07;;;5.05;;
78686;SDS011;68002;52.310;6.990;2023-03-01T08:16:57;6.05;;;4.10;;
78686;SDS011;68002;52.310;6.990;2023-03-01T08:19:22;7.40;;;4.57;;
78686;SDS011;68002;52.310;6.990;2023-03-01T08:21:48;7.63;;;5.18;;
78686;SDS011;68002;52.310;6.990;2023-03-01T08:24:14;9.10;;;4.90;;
78686;SDS011;68002;52.310;6.990;2023-03-01T08:26:40;10.07;;;5.97;;
78686;SDS011;68002;52.310;6.990;2023-03-01T08:29:05;7.77;;;5.63;;
78686;SDS011;68002;52.310;6.990;2023-03-01T08:31:32;9.60;;;6.50;;
78686;SDS011;68002;52.310;6.990;2023-03-01T08:33:59;8.70;;;5.38;;
78686;SDS011;68002;52.310;6.990;2023-03-01T08:36:27;7.95;;;5.43;;
78686;SDS011;68002;52.310;6.990;2023-03-01T08:38:54;8.05;;;4.60;;
78686;SDS011;68002;52.310;6.990;2023-03-01T08:41:20;7.57;;;4.65;;
78686;SDS011;68002;52.310;6.990;2023-03-01T08:43:45;8.47;;;5.90;;
78686;SDS011;68002;52.310;6.990;2023-03-01T08:46:10;11.80;;;7.87;;
78686;SDS011;68002;52.310;6.990;2023-03-01T08:48:36;8.80;;;5.20;;
78686;SDS011;68002;52.310;6.990;2023-03-01T08:51:11;8.07;;;6.20;;
78686;SDS011;68002;52.310;6.990;2023-03-01T08:53:39;9.27;;;5.78;;
78686;SDS011;68002;52.310;6.990;2023-03-01T08:56:04;8.48;;;4.45;;
78686;SDS011;68002;52.310;6.990;2023-03-01T08:58:30;7.10;;;5.45;;
78686;SDS011;68002;52.310;6.990;2023-03-01T09:00:56;7.72;;;5.25;;
78686;SDS011;68002;52.310;6.990;2023-03-01T09:03:21;7.00;;;5.93;;
78686;SDS011;68002;52.310;6.990;2023-03-01T09:05:46;8.33;;;4.57;;
78686;SDS011;68002;52.310;6.990;2023-03-01T09:08:11;7.13;;;5.13;;
78686;SDS011;68002;52.310;6.990;2023-03-01T09:10:37;7.60;;;5.27;;
78686;SDS011;68002;52.310;6.990;2023-03-01T09:13:04;7.55;;;5.72;;
78686;SDS011;68002;52.310;6.990;2023-03-01T09:15:29;7.33;;;5.43;;
78686;SDS011;68002;52.310;6.990;2023-03-01T09:17:54;9.00;;;5.40;;
78686;SDS011;68002;52.310;6.990;2023-03-01T09:20:19;6.73;;;3.80;;
78686;SDS011;68002;52.310;6.990;2023-03-01T09:22:44;6.60;;;4.07;;
78686;SDS011;68002;52.310;6.990;2023-03-01T09:25:10;7.47;;;5.17;;
78686;SDS011;68002;52.310;6.990;2023-03-01T09:27:35;7.30;;;5.57;;
78686;SDS011;68002;52.310;6.990;2023-03-01T09:30:00;9.33;;;6.00;;
78686;SDS011;68002;52.310;6.990;2023-03-01T09:32:26;7.50;;;4.72;;
78686;SDS011;68002;52.310;6.990;2023-03-01T09:34:51;7.10;;;5.20;;
78686;SDS011;68002;52.310;6.990;2023-03-01T09:37:16;6.63;;;4.80;;
78686;SDS011;68002;52.310;6.990;2023-03-01T09:39:41;6.77;;;5.13;;
78686;SDS011;68002;52.310;6.990;2023-03-01T09:42:11;7.70;;;6.50;;
78686;SDS011;68002;52.310;6.990;2023-03-01T09:44:47;8.05;;;5.18;;
78686;SDS011;68002;52.310;6.990;2023-03-01T09:47:22;6.43;;;4.03;;
78686;SDS011;68002;52.310;6.990;2023-03-01T09:50:02;6.40;;;4.90;;
78686;SDS011;68002;52.310;6.990;2023-03-01T09:52:41;7.57;;;5.97;;
78686;SDS011;68002;52.310;6.990;2023-03-01T09:55:15;5.10;;;4.47;;
78686;SDS011;68002;52.310;6.990;2023-03-01T09:57:49;6.22;;;5.10;;
78686;SDS011;68002;52.310;6.990;2023-03-01T10:00:22;6.40;;;4.55;;
78686;SDS011;68002;52.310;6.990;2023-03-01T10:02:57;5.53;;;4.38;;
78686;SDS011;68002;52.310;6.990;2023-03-01T10:11:11;5.57;;;4.63;;
78686;SDS011;68002;52.310;6.990;2023-03-01T10:19:30;7.28;;;3.95;;
78686;SDS011;68002;52.310;6.990;2023-03-01T10:24:47;5.95;;;4.70;;
78686;SDS011;68002;52.310;6.990;2023-03-01T10:27:22;8.52;;;5.53;;
78686;SDS011;68002;52.310;6.990;2023-03-01T10:32:36;5.50;;;4.60;;
78686;SDS011;68002;52.310;6.990;2023-03-01T10:35:14;6.95;;;4.75;;
78686;SDS011;68002;52.310;6.990;2023-03-01T10:37:46;6.78;;;4.78;;
78686;SDS011;68002;52.310;6.990;2023-03-01T10:40:21;7.82;;;3.78;;
78686;SDS011;68002;52.310;6.990;2023-03-01T10:42:47;6.60;;;4.17;;
78686;SDS011;68002;52.310;6.990;2023-03-01T10:53:41;5.13;;;3.67;;
78686;SDS011;68002;52.310;6.990;2023-03-01T10:56:08;5.70;;;3.80;;
78686;SDS011;68002;52.310;6.990;2023-03-01T10:58:38;5.85;;;4.20;;
78686;SDS011;68002;52.310;6.990;2023-03-01T11:01:23;5.35;;;4.22;;
78686;SDS011;68002;52.310;6.990;2023-03-01T11:06:31;6.35;;;4.40;;
78686;SDS011;68002;52.310;6.990;2023-03-01T11:08:56;5.55;;;3.88;;
78686;SDS011;68002;52.310;6.990;2023-03-01T11:11:23;5.90;;;4.47;;
78686;SDS011;68002;52.310;6.990;2023-03-01T11:14:07;4.85;;;3.60;;
78686;SDS011;68002;52.310;6.990;2023-03-01T11:16:40;4.80;;;3.17;;
78686;SDS011;68002;52.310;6.990;2023-03-01T11:21:33;5.87;;;4.00;;
78686;SDS011;68002;52.310;6.990;2023-03-01T11:24:02;5.68;;;3.67;;
78686;SDS011;68002;52.310;6.990;2023-03-01T11:26:31;5.68;;;4.78;;
78686;SDS011;68002;52.310;6.990;2023-03-01T11:29:02;8.13;;;4.85;;
78686;SDS011;68002;52.310;6.990;2023-03-01T11:31:31;5.47;;;4.57;;
78686;SDS011;68002;52.310;6.990;2023-03-01T11:34:00;5.63;;;3.20;;
78686;SDS011;68002;52.310;6.990;2023-03-01T11:36:40;6.13;;;5.35;;
78686;SDS011;68002;52.310;6.990;2023-03-01T11:39:17;5.47;;;4.22;;
78686;SDS011;68002;52.310;6.990;2023-03-01T11:41:52;5.63;;;4.72;;
78686;SDS011;68002;52.310;6.990;2023-03-01T11:44:37;5.72;;;4.82;;
78686;SDS011;68002;52.310;6.990;2023-03-01T11:47:12;7.03;;;4.70;;
78686;SDS011;68002;52.310;6.990;2023-03-01T11:55:24;5.82;;;4.50;;
78686;SDS011;68002;52.310;6.990;2023-03-01T11:58:04;5.13;;;4.25;;
78686;SDS011;68002;52.310;6.990;2023-03-01T12:12:02;4.47;;;2.58;;
78686;SDS011;68002;52.310;6.990;2023-03-01T12:20:11;5.13;;;3.00;;
78686;SDS011;68002;52.310;6.990;2023-03-01T12:25:55;4.32;;;2.95;;
78686;SDS011;68002;52.310;6.990;2023-03-01T12:31:35;4.97;;;2.60;;
78686;SDS011;68002;52.310;6.990;2023-03-01T12:34:19;5.00;;;3.25;;
78686;SDS011;68002;52.310;6.990;2023-03-01T12:36:58;5.40;;;3.08;;
78686;SDS011;68002;52.310;6.990;2023-03-01T12:46:35;5.75;;;4.60;;
78686;SDS011;68002;52.310;6.990;2023-03-01T12:48:43;5.10;;;3.40;;
78686;SDS011;68002;52.310;6.990;2023-03-01T12:51:20;4.07;;;3.70;;
78686;SDS011;68002;52.310;6.990;2023-03-01T12:53:50;5.63;;;3.70;;
78686;SDS011;68002;52.310;6.990;2023-03-01T12:56:19;4.75;;;4.18;;
78686;SDS011;68002;52.310;6.990;2023-03-01T13:04:52;3.97;;;3.15;;
78686;SDS011;68002;52.310;6.990;2023-03-01T13:10:17;4.07;;;3.47;;
78686;SDS011;68002;52.310;6.990;2023-03-01T13:13:12;3.90;;;2.63;;
78686;SDS011;68002;52.310;6.990;2023-03-01T13:15:48;3.25;;;2.20;;
78686;SDS011;68002;52.310;6.990;2023-03-01T13:30:58;4.60;;;1.83;;
78686;SDS011;68002;52.310;6.990;2023-03-01T13:35:53;3.97;;;2.72;;
78686;SDS011;68002;52.310;6.990;2023-03-01T13:41:08;3.63;;;2.38;;
78686;SDS011;68002;52.310;6.990;2023-03-01T13:43:35;3.72;;;2.72;;
78686;SDS011;68002;52.310;6.990;2023-03-01T13:46:23;4.97;;;2.47;;
78686;SDS011;68002;52.310;6.990;2023-03-01T13:48:50;5.55;;;3.00;;
78686;SDS011;68002;52.310;6.990;2023-03-01T13:51:19;4.43;;;2.90;;
78686;SDS011;68002;52.310;6.990;2023-03-01T13:53:48;5.22;;;3.05;;
78686;SDS011;68002;52.310;6.990;2023-03-01T13:56:15;4.03;;;2.70;;
78686;SDS011;68002;52.310;6.990;2023-03-01T13:58:46;4.60;;;3.00;;
78686;SDS011;68002;52.310;6.990;2023-03-01T14:01:25;4.88;;;3.53;;
78686;SDS011;68002;52.310;6.990;2023-03-01T14:03:53;5.03;;;2.95;;
78686;SDS011;68002;52.310;6.990;2023-03-01T14:06:23;4.00;;;2.42;;
78686;SDS011;68002;52.310;6.990;2023-03-01T14:09:04;3.72;;;2.53;;
78686;SDS011;68002;52.310;6.990;2023-03-01T14:11:59;6.15;;;2.90;;
78686;SDS011;68002;52.310;6.990;2023-03-01T14:20:27;5.10;;;3.00;;
78686;SDS011;68002;52.310;6.990;2023-03-01T14:22:55;4.90;;;4.22;;
78686;SDS011;68002;52.310;6.990;2023-03-01T14:25:30;4.85;;;2.90;;
78686;SDS011;68002;52.310;6.990;2023-03-01T14:32:58;4.82;;;2.53;;
78686;SDS011;68002;52.310;6.990;2023-03-01T14:35:26;4.03;;;2.47;;
78686;SDS011;68002;52.310;6.990;2023-03-01T14:37:53;4.43;;;2.35;;
78686;SDS011;68002;52.310;6.990;2023-03-01T14:40:23;4.65;;;3.78;;
78686;SDS011;68002;52.310;6.990;2023-03-01T14:42:50;4.43;;;2.60;;
78686;SDS011;68002;52.310;6.990;2023-03-01T14:45:17;4.03;;;2.35;;
78686;SDS011;68002;52.310;6.990;2023-03-01T14:47:43;3.75;;;2.60;;
78686;SDS011;68002;52.310;6.990;2023-03-01T14:50:15;4.60;;;3.45;;
78686;SDS011;68002;52.310;6.990;2023-03-01T14:52:55;4.22;;;3.47;;
78686;SDS011;68002;52.310;6.990;2023-03-01T14:55:36;5.53;;;3.72;;
78686;SDS011;68002;52.310;6.990;2023-03-01T14:58:04;4.70;;;3.55;;
78686;SDS011;68002;52.310;6.990;2023-03-01T15:00:31;4.28;;;3.47;;
78686;SDS011;68002;52.310;6.990;2023-03-01T15:03:00;5.38;;;3.03;;
78686;SDS011;68002;52.310;6.990;2023-03-01T15:05:36;4.75;;;3.20;;
78686;SDS011;68002;52.310;6.990;2023-03-01T15:08:02;4.47;;;3.35;;
78686;SDS011;68002;52.310;6.990;2023-03-01T15:10:31;4.90;;;4.10;;
78686;SDS011;68002;52.310;6.990;2023-03-01T15:16:04;4.47;;;3.45;;
78686;SDS011;68002;52.310;6.990;2023-03-01T15:18:33;5.00;;;3.13;;
78686;SDS011;68002;52.310;6.990;2023-03-01T15:21:13;5.15;;;3.92;;
78686;SDS011;68002;52.310;6.990;2023-03-01T15:23:41;4.38;;;3.40;;
78686;SDS011;68002;52.310;6.990;2023-03-01T15:26:06;4.70;;;3.20;;
78686;SDS011;68002;52.310;6.990;2023-03-01T15:29:03;6.15;;;3.13;;
78686;SDS011;68002;52.310;6.990;2023-03-01T15:31:29;4.77;;;3.67;;
78686;SDS011;68002;52.310;6.990;2023-03-01T15:34:08;5.53;;;3.83;;
78686;SDS011;68002;52.310;6.990;2023-03-01T15:39:26;4.90;;;4.18;;
78686;SDS011;68002;52.310;6.990;2023-03-01T15:41:55;5.00;;;3.25;;
78686;SDS011;68002;52.310;6.990;2023-03-01T15:44:27;4.43;;;3.30;;
78686;SDS011;68002;52.310;6.990;2023-03-01T15:46:54;3.60;;;3.10;;
78686;SDS011;68002;52.310;6.990;2023-03-01T15:50:02;4.38;;;3.50;;
78686;SDS011;68002;52.310;6.990;2023-03-01T15:52:11;4.85;;;3.63;;
78686;SDS011;68002;52.310;6.990;2023-03-01T15:54:42;4.85;;;3.05;;
78686;SDS011;68002;52.310;6.990;2023-03-01T15:57:10;4.30;;;3.37;;
78686;SDS011;68002;52.310;6.990;2023-03-01T15:59:38;3.80;;;3.30;;
78686;SDS011;68002;52.310;6.990;2023-03-01T16:02:08;4.40;;;3.07;;
78686;SDS011;68002;52.310;6.990;2023-03-01T16:04:34;6.38;;;3.13;;
78686;SDS011;68002;52.310;6.990;2023-03-01T16:06:59;5.47;;;3.47;;
78686;SDS011;68002;52.310;6.990;2023-03-01T16:09:25;4.97;;;2.60;;
78686;SDS011;68002;52.310;6.990;2023-03-01T16:11:51;5.38;;;3.92;;
78686;SDS011;68002;52.310;6.990;2023-03-01T16:14:17;4.22;;;3.17;;
78686;SDS011;68002;52.310;6.990;2023-03-01T16:16:43;6.33;;;3.63;;
78686;SDS011;68002;52.310;6.990;2023-03-01T16:19:08;6.97;;;4.82;;
78686;SDS011;68002;52.310;6.990;2023-03-01T16:21:33;4.83;;;2.80;;
78686;SDS011;68002;52.310;6.990;2023-03-01T16:23:58;3.70;;;3.00;;
78686;SDS011;68002;52.310;6.990;2023-03-01T16:26:24;7.60;;;3.20;;
78686;SDS011;68002;52.310;6.990;2023-03-01T16:28:49;5.13;;;3.70;;
78686;SDS011;68002;52.310;6.990;2023-03-01T16:31:17;7.93;;;3.90;;
78686;SDS011;68002;52.310;6.990;2023-03-01T16:33:43;5.22;;;3.45;;
78686;SDS011;68002;52.310;6.990;2023-03-01T16:36:11;5.57;;;4.25;;
78686;SDS011;68002;52.310;6.990;2023-03-01T16:38:37;11.77;;;6.93;;
78686;SDS011;68002;52.310;6.990;2023-03-01T16:41:03;8.95;;;5.40;;
78686;SDS011;68002;52.310;6.990;2023-03-01T16:43:29;6.73;;;4.20;;
78686;SDS011;68002;52.310;6.990;2023-03-01T16:45:54;4.75;;;3.63;;
78686;SDS011;68002;52.310;6.990;2023-03-01T16:48:20;4.43;;;3.60;;
78686;SDS011;68002;52.310;6.990;2023-03-01T16:50:45;6.73;;;4.17;;
78686;SDS011;68002;52.310;6.990;2023-03-01T16:53:10;6.43;;;3.83;;
78686;SDS011;68002;52.310;6.990;2023-03-01T16:55:35;5.67;;;3.93;;
78686;SDS011;68002;52.310;6.990;2023-03-01T16:58:01;5.63;;;4.00;;